Time;durP1;ratioP1;P1;durP2;ratioP2;P2;SDS_P1;SDS_P2;PMS_P1;PMS_P2;Temp;Humidity;BMP_temperature;BMP_pressure;BME280_temperature;BME280_humidity;BME280_pressure;Samples;Min_cycle;Max_cycle;Signal;HPM_P1;HPM_P2
2024/01/06 00:02:07;;;;;;;;;;;5.30;86.90;;;;;;5115270;27;19950;-73
2024/01/06 00:04:41;;;;;;;;;;;5.30;86.80;;;;;;5119110;27;20010;-73
2024/01/06 00:07:14;;;;;;;;;;;5.40;86.90;;;;;;5097621;28;19928;-73
2024/01/06 00:09:47;;;;;;;;;;;5.40;86.80;;;;;;5109829;27;19930;-74
2024/01/06 00:12:20;;;;;;;;;;;5.40;86.90;;;;;;5102903;27;19924;-73
2024/01/06 00:14:55;;;;;;;;;;;5.40;86.90;;;;;;5112555;27;19932;-73
2024/01/06 00:17:28;;;;;;;;;;;5.40;87.00;;;;;;5103695;27;19934;-73
2024/01/06 00:20:02;;;;;;;;;;;5.40;87.20;;;;;;5109550;27;20050;-66
2024/01/06 00:22:36;;;;;;;;;;;5.40;87.30;;;;;;5101506;27;19935;-63
2024/01/06 00:25:09;;;;;;;;;;;5.50;87.30;;;;;;5109968;27;19959;-65
2024/01/06 00:27:41;;;;;;;;;;;5.50;87.20;;;;;;5108055;27;19939;-63
2024/01/06 00:30:16;;;;;;;;;;;5.60;87.20;;;;;;5089076;28;20011;-63
2024/01/06 00:32:56;;;;;;;;;;;5.50;87.20;;;;;;5105735;27;19962;-63
2024/01/06 00:35:30;;;;;;;;;;;5.50;87.20;;;;;;5098095;28;19928;-62
2024/01/06 00:38:03;;;;;;;;;;;5.50;87.30;;;;;;5115391;27;19923;-63
2024/01/06 00:40:36;;;;;;;;;;;5.50;87.20;;;;;;5105670;27;19992;-63
2024/01/06 00:43:08;;;;;;;;;;;5.60;87.30;;;;;;5120087;27;20300;-63
2024/01/06 00:45:43;;;;;;;;;;;5.60;87.30;;;;;;5099668;27;20007;-62
2024/01/06 00:48:17;;;;;;;;;;;5.60;87.40;;;;;;5113635;27;19928;-62
2024/01/06 00:50:49;;;;;;;;;;;5.60;87.20;;;;;;5099802;27;19939;-63
2024/01/06 00:53:23;;;;;;;;;;;5.70;87.30;;;;;;5112228;27;20019;-63
2024/01/06 00:55:56;;;;;;;;;;;5.70;87.30;;;;;;5116416;27;20026;-63
2024/01/06 00:58:29;;;;;;;;;;;5.60;87.30;;;;;;5106769;27;20011;-62
2024/01/06 01:01:03;;;;;;;;;;;5.70;87.40;;;;;;5118496;27;19932;-60
2024/01/06 01:03:37;;;;;;;;;;;5.70;87.40;;;;;;5108132;27;20019;-64
2024/01/06 01:06:10;;;;;;;;;;;5.70;87.40;;;;;;5101504;27;19924;-63
2024/01/06 01:08:43;;;;;;;;;;;5.70;87.30;;;;;;5101085;28;19934;-65
2024/01/06 01:11:16;;;;;;;;;;;5.70;87.30;;;;;;5083920;28;19924;-64
2024/01/06 01:13:49;;;;;;;;;;;5.70;87.40;;;;;;5109901;27;20410;-63
2024/01/06 01:16:23;;;;;;;;;;;5.70;87.50;;;;;;5108859;27;19927;-64
2024/01/06 01:18:56;;;;;;;;;;;5.70;87.30;;;;;;5099077;28;20363;-64
2024/01/06 01:21:29;;;;;;;;;;;5.80;87.40;;;;;;5090968;28;19928;-63
2024/01/06 01:24:02;;;;;;;;;;;5.80;87.40;;;;;;5097375;27;19967;-64
2024/01/06 01:26:36;;;;;;;;;;;5.70;87.40;;;;;;5099093;27;20010;-63
2024/01/06 01:29:09;;;;;;;;;;;5.80;87.40;;;;;;5100883;27;19934;-73
2024/01/06 01:31:43;;;;;;;;;;;5.70;87.40;;;;;;5106284;27;19923;-75
2024/01/06 01:34:17;;;;;;;;;;;5.70;87.40;;;;;;5104743;27;19928;-75
2024/01/06 01:36:51;;;;;;;;;;;5.70;87.40;;;;;;5104596;27;19946;-73
2024/01/06 01:39:24;;;;;;;;;;;5.70;87.40;;;;;;5096070;28;19947;-76
2024/01/06 01:41:57;;;;;;;;;;;5.70;87.30;;;;;;5105382;27;19931;-72
2024/01/06 01:44:23;;;;;;;;;;;5.70;87.30;;;;;;5114852;27;20020;-73
2024/01/06 01:46:58;;;;;;;;;;;5.70;87.30;;;;;;5118776;27;20400;-73
2024/01/06 01:49:32;;;;;;;;;;;5.70;87.20;;;;;;5094763;27;20001;-73
2024/01/06 01:52:05;;;;;;;;;;;5.70;87.20;;;;;;5104415;28;19927;-73
2024/01/06 01:54:38;;;;;;;;;;;5.70;87.30;;;;;;5094734;28;19924;-72
2024/01/06 01:57:12;;;;;;;;;;;5.70;87.30;;;;;;5091757;28;19928;-73
2024/01/06 01:59:45;;;;;;;;;;;5.70;87.20;;;;;;5114368;28;19971;-73
2024/01/06 02:02:19;;;;;;;;;;;5.60;87.20;;;;;;5094920;28;19934;-73
2024/01/06 02:04:53;;;;;;;;;;;5.60;87.30;;;;;;5114040;28;19971;-73
2024/01/06 02:07:26;;;;;;;;;;;5.60;87.30;;;;;;5091018;28;19931;-73
2024/01/06 02:09:59;;;;;;;;;;;5.60;87.40;;;;;;5092660;28;20255;-73
2024/01/06 02:12:32;;;;;;;;;;;5.60;87.50;;;;;;5089461;28;19963;-73
2024/01/06 02:15:05;;;;;;;;;;;5.60;87.50;;;;;;5114033;28;19947;-72
2024/01/06 02:17:40;;;;;;;;;;;5.60;87.60;;;;;;5102871;28;20031;-72
2024/01/06 02:20:15;;;;;;;;;;;5.60;87.60;;;;;;5100947;28;20006;-72
2024/01/06 02:22:49;;;;;;;;;;;5.70;87.60;;;;;;5107738;27;20369;-72
2024/01/06 02:25:23;;;;;;;;;;;5.70;87.60;;;;;;5108343;27;19934;-73
2024/01/06 02:27:56;;;;;;;;;;;5.70;87.60;;;;;;5100805;28;19931;-72
2024/01/06 02:30:29;;;;;;;;;;;5.60;87.60;;;;;;5093161;28;20390;-73
2024/01/06 02:33:02;;;;;;;;;;;5.70;87.70;;;;;;5094260;28;20386;-72
2024/01/06 02:35:35;;;;;;;;;;;5.70;87.70;;;;;;5115318;27;20426;-70
2024/01/06 02:38:10;;;;;;;;;;;5.70;87.80;;;;;;5108144;27;20023;-73
2024/01/06 02:40:44;;;;;;;;;;;5.70;87.80;;;;;;5101831;27;19924;-63
2024/01/06 02:43:17;;;;;;;;;;;5.70;87.80;;;;;;5106405;27;19965;-63
2024/01/06 02:45:50;;;;;;;;;;;5.70;87.70;;;;;;5101433;27;20377;-62
2024/01/06 02:48:23;;;;;;;;;;;5.70;87.70;;;;;;5113771;27;20366;-62
2024/01/06 02:50:56;;;;;;;;;;;5.70;87.80;;;;;;5117638;27;20088;-64
2024/01/06 02:53:30;;;;;;;;;;;5.70;87.80;;;;;;5068023;28;19924;-63
2024/01/06 02:56:03;;;;;;;;;;;5.70;87.70;;;;;;5111190;27;20030;-62
2024/01/06 02:58:36;;;;;;;;;;;5.70;87.80;;;;;;5109511;27;19928;-63
2024/01/06 03:01:09;;;;;;;;;;;5.70;87.80;;;;;;5109784;27;19976;-63
2024/01/06 03:03:42;;;;;;;;;;;5.70;87.70;;;;;;5097827;27;19928;-62
2024/01/06 03:06:15;;;;;;;;;;;5.70;87.70;;;;;;5112200;27;20015;-62
2024/01/06 03:08:43;;;;;;;;;;;5.70;87.70;;;;;;5120729;27;19931;-63
2024/01/06 03:11:16;;;;;;;;;;;5.70;87.70;;;;;;5102629;27;20397;-62
2024/01/06 03:13:49;;;;;;;;;;;5.70;87.60;;;;;;5094838;27;20019;-63
2024/01/06 03:16:22;;;;;;;;;;;5.70;87.60;;;;;;5118926;27;19924;-63
2024/01/06 03:18:55;;;;;;;;;;;5.80;87.50;;;;;;5101603;27;19974;-63
2024/01/06 03:21:28;;;;;;;;;;;5.70;87.50;;;;;;5089502;28;19924;-63
2024/01/06 03:24:02;;;;;;;;;;;5.70;87.60;;;;;;5116356;27;19928;-63
2024/01/06 03:26:35;;;;;;;;;;;5.70;87.60;;;;;;5115752;27;19930;-65
2024/01/06 03:29:08;;;;;;;;;;;5.70;87.70;;;;;;5118167;27;19924;-64
2024/01/06 03:31:42;;;;;;;;;;;5.70;87.70;;;;;;5098410;27;20560;-63
2024/01/06 03:41:27;;;;;;;;;;;5.80;87.40;;;;;;5115946;27;20010;-63
2024/01/06 03:44:01;;;;;;;;;;;5.80;87.40;;;;;;5113528;27;19924;-64
2024/01/06 03:46:34;;;;;;;;;;;5.80;87.40;;;;;;5117441;27;19977;-64
2024/01/06 03:49:07;;;;;;;;;;;5.80;87.40;;;;;;5111843;27;19924;-62
2024/01/06 03:51:40;;;;;;;;;;;5.80;87.30;;;;;;5120024;27;19935;-63
2024/01/06 03:54:13;;;;;;;;;;;5.80;87.20;;;;;;5103738;27;19954;-62
2024/01/06 03:56:47;;;;;;;;;;;5.70;87.30;;;;;;5112344;27;19930;-62
2024/01/06 03:59:20;;;;;;;;;;;5.80;87.20;;;;;;5107935;27;19930;-61
2024/01/06 04:01:46;;;;;;;;;;;5.80;87.30;;;;;;5100257;27;19924;-63
2024/01/06 04:04:20;;;;;;;;;;;5.80;87.30;;;;;;5113120;27;20000;-61
2024/01/06 04:06:54;;;;;;;;;;;5.90;87.30;;;;;;5116817;27;19931;-62
2024/01/06 04:09:33;;;;;;;;;;;5.80;87.20;;;;;;5105590;27;19928;-61
2024/01/06 04:12:08;;;;;;;;;;;5.80;87.20;;;;;;5109568;27;19938;-61
2024/01/06 04:14:42;;;;;;;;;;;5.90;87.30;;;;;;5094835;27;20030;-62
2024/01/06 04:17:08;;;;;;;;;;;5.90;87.30;;;;;;5106229;27;19924;-62
2024/01/06 04:19:42;;;;;;;;;;;5.90;87.20;;;;;;5100255;27;19928;-61
2024/01/06 04:22:15;;;;;;;;;;;5.90;87.40;;;;;;5112753;27;19928;-63
2024/01/06 04:24:48;;;;;;;;;;;5.80;87.30;;;;;;5118222;27;20034;-62
2024/01/06 04:27:22;;;;;;;;;;;5.90;87.40;;;;;;5105698;27;19928;-63
2024/01/06 04:29:52;;;;;;;;;;;5.80;87.40;;;;;;5104026;27;19924;-62
2024/01/06 04:32:26;;;;;;;;;;;5.80;87.40;;;;;;5095792;28;19928;-62
2024/01/06 04:35:05;;;;;;;;;;;5.80;87.40;;;;;;5093437;28;20014;-63
2024/01/06 04:37:39;;;;;;;;;;;5.80;87.40;;;;;;5115451;27;19984;-61
2024/01/06 04:40:18;;;;;;;;;;;5.80;87.40;;;;;;5100138;28;19927;-63
2024/01/06 04:42:53;;;;;;;;;;;5.90;87.50;;;;;;5108320;27;19934;-62
2024/01/06 04:45:27;;;;;;;;;;;5.80;87.40;;;;;;5097723;27;19924;-63
2024/01/06 04:48:00;;;;;;;;;;;5.80;87.50;;;;;;5096623;27;19924;-64
2024/01/06 04:50:33;;;;;;;;;;;5.80;87.50;;;;;;5097638;27;20006;-62
2024/01/06 04:53:06;;;;;;;;;;;5.80;87.60;;;;;;5099576;27;20018;-62
2024/01/06 04:55:39;;;;;;;;;;;5.80;87.60;;;;;;5119024;27;20339;-62
2024/01/06 04:58:13;;;;;;;;;;;5.90;87.60;;;;;;5099906;27;19928;-62
2024/01/06 05:00:47;;;;;;;;;;;5.80;87.50;;;;;;5105740;27;19930;-64
2024/01/06 05:03:20;;;;;;;;;;;5.90;87.50;;;;;;5105080;27;19924;-64
2024/01/06 05:05:59;;;;;;;;;;;5.80;87.50;;;;;;5115755;27;19984;-65
2024/01/06 05:08:33;;;;;;;;;;;5.80;87.50;;;;;;5107226;27;19969;-66
2024/01/06 05:11:06;;;;;;;;;;;5.80;87.50;;;;;;5103869;27;20437;-65
2024/01/06 05:13:40;;;;;;;;;;;5.80;87.50;;;;;;5090608;27;20006;-65
2024/01/06 05:16:14;;;;;;;;;;;5.90;87.60;;;;;;5116605;27;19930;-65
2024/01/06 05:18:40;;;;;;;;;;;5.80;87.60;;;;;;5097103;27;19928;-65
2024/01/06 05:21:14;;;;;;;;;;;5.80;87.60;;;;;;5107525;27;19935;-65
2024/01/06 05:23:47;;;;;;;;;;;5.90;87.60;;;;;;5090181;28;19973;-64
2024/01/06 05:26:20;;;;;;;;;;;5.90;87.60;;;;;;5105913;27;19939;-65
2024/01/06 05:28:54;;;;;;;;;;;5.90;87.60;;;;;;5106823;27;20022;-65
2024/01/06 05:31:28;;;;;;;;;;;5.90;87.60;;;;;;5091095;28;19928;-64
2024/01/06 05:34:01;;;;;;;;;;;5.90;87.50;;;;;;5103000;27;19935;-65
2024/01/06 05:36:34;;;;;;;;;;;5.90;87.50;;;;;;5097944;28;19974;-66
2024/01/06 05:39:07;;;;;;;;;;;5.90;87.50;;;;;;5117532;27;19933;-66
2024/01/06 05:41:40;;;;;;;;;;;5.90;87.50;;;;;;5097503;28;19928;-64
2024/01/06 05:44:20;;;;;;;;;;;5.90;87.60;;;;;;5099644;28;20266;-65
2024/01/06 05:46:54;;;;;;;;;;;5.80;87.60;;;;;;5093806;28;19977;-65
2024/01/06 05:49:27;;;;;;;;;;;5.80;87.70;;;;;;5105687;28;19935;-66
2024/01/06 05:52:00;;;;;;;;;;;5.80;87.70;;;;;;5106284;27;19923;-64
2024/01/06 05:54:33;;;;;;;;;;;5.80;87.70;;;;;;5117490;28;20014;-65
2024/01/06 05:57:06;;;;;;;;;;;5.80;87.60;;;;;;5112369;27;20334;-65
2024/01/06 05:59:40;;;;;;;;;;;5.80;87.60;;;;;;5094812;28;20389;-65
2024/01/06 06:02:14;;;;;;;;;;;5.80;87.60;;;;;;5100047;28;19924;-65
2024/01/06 06:04:47;;;;;;;;;;;5.80;87.70;;;;;;5103633;28;19932;-64
2024/01/06 06:07:20;;;;;;;;;;;5.80;87.70;;;;;;5100229;28;19942;-64
2024/01/06 06:09:53;;;;;;;;;;;5.80;87.60;;;;;;5104382;28;20013;-61
2024/01/06 06:12:27;;;;;;;;;;;5.90;87.60;;;;;;5105289;28;19958;-63
2024/01/06 06:15:03;;;;;;;;;;;5.80;87.70;;;;;;5102133;28;19924;-63
2024/01/06 06:17:36;;;;;;;;;;;5.80;87.50;;;;;;5104071;28;20019;-62
2024/01/06 06:20:09;;;;;;;;;;;5.90;87.70;;;;;;5111889;28;19925;-62
2024/01/06 06:22:42;;;;;;;;;;;5.90;87.70;;;;;;5105307;28;19931;-62
2024/01/06 06:25:15;;;;;;;;;;;5.80;87.60;;;;;;5110708;28;19925;-62
2024/01/06 06:27:48;;;;;;;;;;;5.80;87.60;;;;;;5096135;28;20408;-62
2024/01/06 06:30:22;;;;;;;;;;;5.80;87.60;;;;;;5088700;28;19924;-60
2024/01/06 06:32:56;;;;;;;;;;;5.80;87.60;;;;;;5115170;28;20390;-63
2024/01/06 06:35:29;;;;;;;;;;;5.90;87.60;;;;;;5103159;28;20279;-61
2024/01/06 06:38:02;;;;;;;;;;;5.90;87.60;;;;;;5102890;28;19947;-63
2024/01/06 06:40:35;;;;;;;;;;;5.90;87.50;;;;;;5112055;28;19927;-63
2024/01/06 06:43:08;;;;;;;;;;;5.90;87.70;;;;;;5106312;28;19969;-62
2024/01/06 06:45:43;;;;;;;;;;;5.90;87.70;;;;;;5099821;28;19930;-61
2024/01/06 06:48:17;;;;;;;;;;;5.90;87.70;;;;;;5090823;28;19924;-62
2024/01/06 06:50:50;;;;;;;;;;;5.90;87.70;;;;;;5105886;28;19951;-63
2024/01/06 06:53:23;;;;;;;;;;;5.90;87.70;;;;;;5104960;28;19931;-63
2024/01/06 06:55:56;;;;;;;;;;;5.80;87.80;;;;;;5091934;28;19924;-63
2024/01/06 06:58:29;;;;;;;;;;;5.90;87.60;;;;;;5090644;28;19930;-61
2024/01/06 07:01:03;;;;;;;;;;;5.80;87.60;;;;;;5113055;28;19930;-61
2024/01/06 07:03:37;;;;;;;;;;;5.80;87.70;;;;;;5104609;28;19932;-62
2024/01/06 07:06:12;;;;;;;;;;;5.90;87.80;;;;;;5095914;28;19928;-63
2024/01/06 07:08:46;;;;;;;;;;;5.80;87.60;;;;;;5096596;28;19935;-62
2024/01/06 07:11:19;;;;;;;;;;;5.90;87.60;;;;;;5107577;27;20860;-61
2024/01/06 07:14:07;;;;;;;;;;;5.90;87.60;;;;;;5111174;27;24157;-62
2024/01/06 07:16:48;;;;;;;;;;;5.90;87.60;;;;;;5102764;27;19928;-63
2024/01/06 07:19:22;;;;;;;;;;;5.80;87.70;;;;;;5093630;28;20422;-59
2024/01/06 07:21:55;;;;;;;;;;;5.90;87.60;;;;;;5106794;27;19928;-60
2024/01/06 07:24:28;;;;;;;;;;;5.80;87.70;;;;;;5095208;28;20374;-59
2024/01/06 07:27:01;;;;;;;;;;;5.80;87.70;;;;;;5107195;27;19959;-59
2024/01/06 07:29:34;;;;;;;;;;;5.80;87.70;;;;;;5102065;27;20014;-57
2024/01/06 07:32:08;;;;;;;;;;;5.80;87.80;;;;;;5105294;27;19966;-60
2024/01/06 07:34:41;;;;;;;;;;;5.80;87.80;;;;;;5108845;27;19934;-60
2024/01/06 07:37:14;;;;;;;;;;;5.80;87.70;;;;;;5115318;27;19935;-59
2024/01/06 07:39:47;;;;;;;;;;;5.80;87.80;;;;;;5109647;27;19928;-60
2024/01/06 07:42:20;;;;;;;;;;;5.80;87.80;;;;;;5104912;27;19981;-59
2024/01/06 07:44:53;;;;;;;;;;;5.80;87.70;;;;;;5113569;27;19927;-60
2024/01/06 07:47:27;;;;;;;;;;;5.80;87.70;;;;;;5112135;27;19932;-58
2024/01/06 07:49:54;;;;;;;;;;;5.90;87.90;;;;;;5110330;27;19932;-60
2024/01/06 07:52:27;;;;;;;;;;;5.90;87.90;;;;;;5110016;27;19941;-59
2024/01/06 07:55:00;;;;;;;;;;;5.90;87.90;;;;;;5119107;27;19924;-60
2024/01/06 07:57:33;;;;;;;;;;;5.90;87.90;;;;;;5103149;27;19938;-60
2024/01/06 08:00:00;;;;;;;;;;;5.90;87.80;;;;;;5101685;27;19924;-58
2024/01/06 08:02:41;;;;;;;;;;;5.90;87.70;;;;;;5109024;27;19923;-62
2024/01/06 08:05:15;;;;;;;;;;;6.00;87.70;;;;;;5103732;27;19923;-58
2024/01/06 08:07:48;;;;;;;;;;;6.00;87.70;;;;;;5110049;27;19932;-60
2024/01/06 08:10:21;;;;;;;;;;;5.90;87.70;;;;;;5096784;28;19930;-60
2024/01/06 08:12:55;;;;;;;;;;;6.00;87.60;;;;;;5091062;28;19930;-58
2024/01/06 08:15:28;;;;;;;;;;;5.90;87.70;;;;;;5115232;27;20010;-60
2024/01/06 08:18:02;;;;;;;;;;;6.00;87.70;;;;;;5116028;27;19981;-60
2024/01/06 08:20:36;;;;;;;;;;;5.90;87.60;;;;;;5093961;28;19928;-59
2024/01/06 08:23:10;;;;;;;;;;;5.90;87.50;;;;;;5114654;27;19924;-61
2024/01/06 08:25:43;;;;;;;;;;;5.90;87.50;;;;;;5108029;27;19962;-60
2024/01/06 08:28:18;;;;;;;;;;;5.90;87.50;;;;;;5104945;27;20440;-60
2024/01/06 08:30:51;;;;;;;;;;;5.90;87.50;;;;;;5107229;27;19923;-60
2024/01/06 08:33:25;;;;;;;;;;;6.00;87.30;;;;;;5104313;27;20020;-58
2024/01/06 08:35:59;;;;;;;;;;;6.00;87.30;;;;;;5119273;27;19928;-60
2024/01/06 08:38:33;;;;;;;;;;;6.00;87.40;;;;;;5108980;27;20374;-60
2024/01/06 08:41:06;;;;;;;;;;;6.00;87.30;;;;;;5105153;27;19969;-61
2024/01/06 08:43:39;;;;;;;;;;;5.90;87.30;;;;;;5093402;27;19934;-59
2024/01/06 08:46:12;;;;;;;;;;;6.00;87.30;;;;;;5099318;28;19928;-60
2024/01/06 08:48:46;;;;;;;;;;;6.00;87.30;;;;;;5111785;27;19939;-61
2024/01/06 08:51:20;;;;;;;;;;;6.00;87.20;;;;;;5100156;28;19934;-60
2024/01/06 08:53:53;;;;;;;;;;;6.00;87.10;;;;;;5097547;28;19973;-61
2024/01/06 08:56:26;;;;;;;;;;;6.10;87.20;;;;;;5105865;27;19927;-61
2024/01/06 08:59:00;;;;;;;;;;;6.10;87.10;;;;;;5118347;27;19929;-59
2024/01/06 09:01:35;;;;;;;;;;;6.10;87.10;;;;;;5118554;27;19931;-61
2024/01/06 09:04:11;;;;;;;;;;;6.00;87.10;;;;;;5117802;27;20368;-61
2024/01/06 09:06:45;;;;;;;;;;;6.10;87.20;;;;;;5114144;27;19927;-59
2024/01/06 09:09:18;;;;;;;;;;;6.00;87.10;;;;;;5101523;27;19932;-61
2024/01/06 09:11:46;;;;;;;;;;;6.10;87.10;;;;;;5115626;27;19927;-60
2024/01/06 09:14:19;;;;;;;;;;;6.10;87.20;;;;;;5098264;28;19949;-60
2024/01/06 09:16:52;;;;;;;;;;;6.10;87.10;;;;;;5104521;27;19924;-61
2024/01/06 09:19:28;;;;;;;;;;;6.10;87.20;;;;;;5103039;27;19996;-60
2024/01/06 09:22:01;;;;;;;;;;;6.10;87.10;;;;;;5105567;27;19931;-61
2024/01/06 09:24:34;;;;;;;;;;;6.20;87.10;;;;;;5112785;27;20294;-61
2024/01/06 09:27:07;;;;;;;;;;;6.10;86.90;;;;;;5109629;27;19946;-60
2024/01/06 09:29:40;;;;;;;;;;;6.20;86.90;;;;;;5100093;27;19928;-59
2024/01/06 09:32:13;;;;;;;;;;;6.20;86.90;;;;;;5092148;28;19931;-60
2024/01/06 09:34:48;;;;;;;;;;;6.20;86.90;;;;;;5116170;27;19927;-59
2024/01/06 09:37:22;;;;;;;;;;;6.20;86.80;;;;;;5111984;27;19977;-61
2024/01/06 09:39:55;;;;;;;;;;;6.30;86.70;;;;;;5095983;28;20248;-71
2024/01/06 09:42:28;;;;;;;;;;;6.30;86.70;;;;;;5114527;27;20311;-71
2024/01/06 09:45:01;;;;;;;;;;;6.30;86.70;;;;;;5104580;27;19928;-70
2024/01/06 09:47:34;;;;;;;;;;;6.30;86.50;;;;;;5105460;27;19931;-70
2024/01/06 09:50:10;;;;;;;;;;;6.40;86.40;;;;;;5095781;28;19924;-72
2024/01/06 09:52:44;;;;;;;;;;;6.50;86.30;;;;;;5114145;27;19934;-71
2024/01/06 09:55:12;;;;;;;;;;;6.50;86.30;;;;;;5106853;28;19934;-71
2024/01/06 09:57:45;;;;;;;;;;;6.60;86.20;;;;;;5096139;28;20026;-70
2024/01/06 10:00:20;;;;;;;;;;;6.60;86.10;;;;;;5088783;28;19951;-72
2024/01/06 10:02:53;;;;;;;;;;;6.60;86.00;;;;;;5105560;28;19923;-70
2024/01/06 10:05:27;;;;;;;;;;;6.60;86.20;;;;;;5110933;28;19959;-71
2024/01/06 10:08:04;;;;;;;;;;;6.60;86.00;;;;;;5110684;28;20289;-71
2024/01/06 10:10:38;;;;;;;;;;;6.60;86.00;;;;;;5110371;28;19927;-70
2024/01/06 10:13:11;;;;;;;;;;;6.70;85.80;;;;;;5110689;28;19931;-71
2024/01/06 10:15:44;;;;;;;;;;;6.70;85.70;;;;;;5105665;28;19931;-72
2024/01/06 10:18:17;;;;;;;;;;;6.70;85.60;;;;;;5104491;28;19990;-71
2024/01/06 10:20:52;;;;;;;;;;;6.80;85.60;;;;;;5106529;28;20009;-72
2024/01/06 10:23:27;;;;;;;;;;;6.80;85.50;;;;;;5101916;28;19924;-70
2024/01/06 10:26:00;;;;;;;;;;;6.80;85.50;;;;;;5104849;28;20407;-71
2024/01/06 10:28:33;;;;;;;;;;;6.80;85.50;;;;;;5099033;28;20019;-71
2024/01/06 10:31:06;;;;;;;;;;;6.80;85.40;;;;;;5089690;28;19927;-72
2024/01/06 10:33:39;;;;;;;;;;;6.90;85.40;;;;;;5089643;28;19931;-70
2024/01/06 10:36:15;;;;;;;;;;;6.90;85.40;;;;;;5090195;28;19928;-71
2024/01/06 10:38:55;;;;;;;;;;;6.80;85.40;;;;;;5100436;28;19928;-72
2024/01/06 10:41:37;;;;;;;;;;;6.80;85.50;;;;;;5102300;28;19949;-72
2024/01/06 10:44:10;;;;;;;;;;;6.80;85.50;;;;;;5117935;27;19967;-72
2024/01/06 10:46:44;;;;;;;;;;;6.80;85.40;;;;;;5109692;27;19931;-72
2024/01/06 10:49:18;;;;;;;;;;;6.80;85.50;;;;;;5113655;27;20012;-58
2024/01/06 10:51:52;;;;;;;;;;;6.90;85.40;;;;;;5093037;28;19941;-59
2024/01/06 10:54:28;;;;;;;;;;;6.90;85.40;;;;;;5096067;28;20393;-59
2024/01/06 10:57:02;;;;;;;;;;;6.80;85.30;;;;;;5120982;27;19962;-59
2024/01/06 10:59:35;;;;;;;;;;;6.80;85.30;;;;;;5118275;27;19963;-59
2024/01/06 11:02:08;;;;;;;;;;;6.80;85.30;;;;;;5093362;28;19928;-60
2024/01/06 11:04:43;;;;;;;;;;;6.80;85.30;;;;;;5109664;27;20292;-60
2024/01/06 11:07:24;;;;;;;;;;;6.80;85.60;;;;;;5120498;27;19924;-59
2024/01/06 11:09:59;;;;;;;;;;;6.80;85.30;;;;;;5118026;27;19924;-58
2024/01/06 11:12:33;;;;;;;;;;;6.80;85.10;;;;;;5102506;27;19927;-59
2024/01/06 11:15:06;;;;;;;;;;;6.90;85.00;;;;;;5104416;27;20038;-60
2024/01/06 11:17:53;;;;;;;;;;;7.00;85.10;;;;;;5095698;28;19957;-60
2024/01/06 11:20:26;;;;;;;;;;;7.00;85.10;;;;;;5115191;27;19966;-59
2024/01/06 11:23:18;;;;;;;;;;;7.00;84.90;;;;;;5115564;27;19931;-59
2024/01/06 11:25:53;;;;;;;;;;;7.00;85.00;;;;;;5096975;28;19934;-60
2024/01/06 11:28:27;;;;;;;;;;;7.00;85.00;;;;;;5101176;28;20015;-59
2024/01/06 11:31:06;;;;;;;;;;;7.00;85.10;;;;;;5108681;27;19967;-58
2024/01/06 11:33:42;;;;;;;;;;;7.10;84.90;;;;;;5097627;27;20040;-60
2024/01/06 11:36:15;;;;;;;;;;;7.10;84.80;;;;;;5115033;27;20325;-60
2024/01/06 11:38:50;;;;;;;;;;;7.20;84.70;;;;;;5109051;27;20354;-60
2024/01/06 11:41:39;;;;;;;;;;;7.20;84.60;;;;;;5116346;27;19931;-59
2024/01/06 11:44:12;;;;;;;;;;;7.20;84.50;;;;;;5119921;27;20004;-58
2024/01/06 11:46:46;;;;;;;;;;;7.30;84.50;;;;;;5110166;27;19927;-59
2024/01/06 11:49:21;;;;;;;;;;;7.30;84.40;;;;;;5108107;27;19924;-60
2024/01/06 11:51:54;;;;;;;;;;;7.40;84.50;;;;;;5114812;27;20493;-61
2024/01/06 11:54:28;;;;;;;;;;;7.30;84.30;;;;;;5120053;27;20485;-60
2024/01/06 11:57:02;;;;;;;;;;;7.30;84.30;;;;;;5119162;27;19923;-60
2024/01/06 11:59:35;;;;;;;;;;;7.20;84.40;;;;;;5110022;27;20034;-60
2024/01/06 12:02:11;;;;;;;;;;;7.20;84.40;;;;;;5107720;27;19931;-63
2024/01/06 12:04:49;;;;;;;;;;;7.20;84.50;;;;;;5118872;27;19925;-63
2024/01/06 12:07:23;;;;;;;;;;;7.20;84.50;;;;;;5107646;27;19924;-62
2024/01/06 12:10:02;;;;;;;;;;;7.30;84.40;;;;;;5116090;27;19928;-62
2024/01/06 12:12:36;;;;;;;;;;;7.30;84.30;;;;;;5120771;27;19966;-62
2024/01/06 12:15:09;;;;;;;;;;;7.40;84.40;;;;;;5102178;27;19951;-63
2024/01/06 12:17:43;;;;;;;;;;;7.40;84.20;;;;;;5117239;27;20011;-63
2024/01/06 12:20:16;;;;;;;;;;;7.50;84.10;;;;;;5118030;27;20315;-62
2024/01/06 12:22:49;;;;;;;;;;;7.50;84.00;;;;;;5100843;27;20263;-63
2024/01/06 12:25:24;;;;;;;;;;;7.50;84.20;;;;;;5095366;28;20001;-61
2024/01/06 12:27:57;;;;;;;;;;;7.50;84.00;;;;;;5109858;27;19923;-62
2024/01/06 12:30:31;;;;;;;;;;;7.50;83.90;;;;;;5089440;28;20290;-63
2024/01/06 12:33:04;;;;;;;;;;;7.50;83.90;;;;;;5115243;27;20023;-63
2024/01/06 12:35:38;;;;;;;;;;;7.50;84.00;;;;;;5115073;27;19923;-62
2024/01/06 12:38:12;;;;;;;;;;;7.40;84.10;;;;;;5106376;27;19936;-62
2024/01/06 12:40:47;;;;;;;;;;;7.40;84.00;;;;;;5106592;27;20746;-62
2024/01/06 12:43:20;;;;;;;;;;;7.40;84.30;;;;;;5100808;28;19967;-63
2024/01/06 12:45:53;;;;;;;;;;;7.50;84.30;;;;;;5115483;27;19959;-63
2024/01/06 12:48:27;;;;;;;;;;;7.40;84.10;;;;;;5113268;27;19968;-61
2024/01/06 12:51:00;;;;;;;;;;;7.50;84.20;;;;;;5110443;27;19924;-61
2024/01/06 12:53:33;;;;;;;;;;;7.50;84.10;;;;;;5117954;27;20391;-61
2024/01/06 12:56:08;;;;;;;;;;;7.50;84.20;;;;;;5103586;27;20408;-62
2024/01/06 12:58:41;;;;;;;;;;;7.50;84.00;;;;;;5109390;27;19942;-64
2024/01/06 13:01:14;;;;;;;;;;;7.50;84.10;;;;;;5117295;27;20429;-62
2024/01/06 13:03:47;;;;;;;;;;;7.50;84.10;;;;;;5111437;27;19923;-63
2024/01/06 13:06:20;;;;;;;;;;;7.50;84.20;;;;;;5112271;27;19975;-62
2024/01/06 13:08:53;;;;;;;;;;;7.40;84.20;;;;;;5114421;27;19946;-66
2024/01/06 13:11:28;;;;;;;;;;;7.40;84.30;;;;;;5097228;28;19930;-66
2024/01/06 13:14:07;;;;;;;;;;;7.40;84.30;;;;;;5119727;27;20370;-66
2024/01/06 13:16:41;;;;;;;;;;;7.40;84.30;;;;;;5110872;27;19973;-66
2024/01/06 13:19:14;;;;;;;;;;;7.40;84.20;;;;;;5118005;27;19976;-66
2024/01/06 13:21:47;;;;;;;;;;;7.40;84.00;;;;;;5096893;27;19924;-67
2024/01/06 13:24:20;;;;;;;;;;;7.30;84.20;;;;;;5090904;28;19994;-64
2024/01/06 13:26:54;;;;;;;;;;;7.30;84.50;;;;;;5105226;27;19963;-66
2024/01/06 13:29:28;;;;;;;;;;;7.30;84.40;;;;;;5095732;28;19968;-66
2024/01/06 13:32:01;;;;;;;;;;;7.30;84.40;;;;;;5107626;27;20448;-66
2024/01/06 13:34:34;;;;;;;;;;;7.30;84.60;;;;;;5106940;27;20453;-66
2024/01/06 13:37:07;;;;;;;;;;;7.30;84.40;;;;;;5115382;27;20300;-66
2024/01/06 13:39:40;;;;;;;;;;;7.30;84.50;;;;;;5105406;27;19928;-65
2024/01/06 13:42:14;;;;;;;;;;;7.30;84.60;;;;;;5087960;28;19959;-66
2024/01/06 13:44:48;;;;;;;;;;;7.40;84.50;;;;;;5105109;27;19945;-66
2024/01/06 13:47:21;;;;;;;;;;;7.40;84.60;;;;;;5114254;27;19924;-66
2024/01/06 13:49:56;;;;;;;;;;;7.40;84.60;;;;;;5115277;27;19932;-66
2024/01/06 13:52:29;;;;;;;;;;;7.40;84.60;;;;;;5116460;27;19959;-66
2024/01/06 13:55:02;;;;;;;;;;;7.30;84.70;;;;;;5100992;28;20036;-64
2024/01/06 13:57:36;;;;;;;;;;;7.30;84.60;;;;;;5102713;28;19928;-65
2024/01/06 14:00:14;;;;;;;;;;;7.30;84.70;;;;;;5114844;28;20305;-66
2024/01/06 14:02:47;;;;;;;;;;;7.30;84.70;;;;;;5099329;28;19946;-66
2024/01/06 14:05:20;;;;;;;;;;;7.20;84.50;;;;;;5101348;28;19959;-65
2024/01/06 14:07:53;;;;;;;;;;;7.30;84.60;;;;;;5107023;28;19993;-67
2024/01/06 14:10:26;;;;;;;;;;;7.30;84.60;;;;;;5111071;28;19964;-66
2024/01/06 14:13:00;;;;;;;;;;;7.30;84.60;;;;;;5113924;28;19973;-64
2024/01/06 14:15:35;;;;;;;;;;;7.40;84.50;;;;;;5098523;28;19928;-66
2024/01/06 14:18:10;;;;;;;;;;;7.40;84.50;;;;;;5096676;28;19924;-66
2024/01/06 14:20:43;;;;;;;;;;;7.40;84.60;;;;;;5101453;28;20393;-72
2024/01/06 14:23:16;;;;;;;;;;;7.40;84.40;;;;;;5099435;28;20390;-73
2024/01/06 14:25:49;;;;;;;;;;;7.40;84.40;;;;;;5117942;27;19980;-71
2024/01/06 14:28:23;;;;;;;;;;;7.40;84.40;;;;;;5122050;27;19931;-73
2024/01/06 14:30:56;;;;;;;;;;;7.40;84.50;;;;;;5122245;27;19930;-73
2024/01/06 14:33:30;;;;;;;;;;;7.40;84.50;;;;;;5106556;27;19971;-73
2024/01/06 14:36:04;;;;;;;;;;;7.40;84.40;;;;;;5111092;27;20022;-72
2024/01/06 14:38:38;;;;;;;;;;;7.50;84.40;;;;;;5112715;27;20446;-72
2024/01/06 14:41:11;;;;;;;;;;;7.40;84.60;;;;;;5108063;27;19955;-73
2024/01/06 14:43:45;;;;;;;;;;;7.40;84.70;;;;;;5101293;27;19955;-72
2024/01/06 14:46:18;;;;;;;;;;;7.40;84.60;;;;;;5102111;27;20259;-73
2024/01/06 14:48:52;;;;;;;;;;;7.30;84.90;;;;;;5101360;27;19985;-72
2024/01/06 14:51:25;;;;;;;;;;;7.30;84.80;;;;;;5107098;27;19928;-72
2024/01/06 14:53:52;;;;;;;;;;;7.30;84.80;;;;;;5115959;27;19977;-72
2024/01/06 14:56:26;;;;;;;;;;;7.30;84.90;;;;;;5101768;28;20354;-72
2024/01/06 14:59:00;;;;;;;;;;;7.30;85.00;;;;;;5106635;27;19928;-72
2024/01/06 15:01:34;;;;;;;;;;;7.30;84.90;;;;;;5115387;27;19924;-73
2024/01/06 15:04:07;;;;;;;;;;;7.40;85.00;;;;;;5098914;28;19930;-72
2024/01/06 15:06:40;;;;;;;;;;;7.30;85.10;;;;;;5115030;27;19927;-73
2024/01/06 15:09:13;;;;;;;;;;;7.30;85.10;;;;;;5112946;27;19966;-72
2024/01/06 15:11:46;;;;;;;;;;;7.30;85.20;;;;;;5110343;27;20409;-72
2024/01/06 15:14:20;;;;;;;;;;;7.30;85.20;;;;;;5102238;27;20349;-74
2024/01/06 15:16:54;;;;;;;;;;;7.30;85.30;;;;;;5095891;27;19938;-73